createdAt,value
2018-09-11T00:00:05.468Z,16.40
2018-09-11T00:05:00.085Z,16.30
2018-09-11T00:09:54.584Z,16.30
2018-09-11T00:14:49.126Z,16.30
2018-09-11T00:19:43.745Z,16.20
2018-09-11T00:24:38.443Z,16.20
2018-09-11T00:29:33.056Z,16.10
2018-09-11T00:34:27.630Z,16.00
2018-09-11T00:39:23.031Z,15.90
2018-09-11T00:44:17.853Z,15.80
2018-09-11T00:49:12.588Z,15.80
2018-09-11T00:54:07.403Z,15.70
2018-09-11T00:59:02.210Z,15.70
2018-09-11T01:03:56.914Z,15.70
2018-09-11T01:08:51.406Z,15.70
2018-09-11T01:13:45.911Z,15.70
2018-09-11T01:18:40.472Z,15.90
2018-09-11T01:23:35.016Z,15.90
2018-09-11T01:28:29.797Z,15.90
2018-09-11T01:33:24.292Z,15.80
2018-09-11T01:38:18.892Z,15.70
2018-09-11T01:43:13.387Z,15.60
2018-09-11T01:48:07.912Z,15.60
2018-09-11T01:53:02.470Z,15.60
2018-09-11T01:57:57.015Z,15.50
2018-09-11T02:02:51.607Z,15.50
2018-09-11T02:07:46.114Z,15.50
2018-09-11T02:12:41.326Z,15.50
2018-09-11T02:17:36.336Z,15.50
2018-09-11T02:22:30.821Z,15.50
2018-09-11T02:27:25.555Z,15.50
2018-09-11T02:32:20.267Z,15.40
2018-09-11T02:37:14.932Z,15.40
2018-09-11T02:42:09.399Z,15.40
2018-09-11T02:47:03.971Z,15.40
2018-09-11T02:51:58.825Z,15.30
2018-09-11T02:56:53.328Z,15.30
2018-09-11T03:01:47.811Z,15.20
2018-09-11T03:06:42.314Z,15.20
2018-09-11T03:11:37.075Z,15.10
2018-09-11T03:16:31.593Z,15.10
2018-09-11T03:21:26.149Z,15.00
2018-09-11T03:26:20.674Z,15.00
2018-09-11T03:31:15.155Z,15.00
2018-09-11T03:36:09.644Z,14.90
2018-09-11T03:41:04.148Z,14.90
2018-09-11T03:45:58.664Z,14.90
2018-09-11T03:50:53.115Z,14.80
2018-09-11T03:55:48.284Z,14.80
2018-09-11T04:00:42.957Z,14.70
2018-09-11T04:05:37.587Z,14.60
2018-09-11T04:10:32.200Z,14.60
2018-09-11T04:15:26.706Z,14.60
2018-09-11T04:20:21.212Z,14.50
2018-09-11T04:25:15.794Z,14.50
2018-09-11T04:30:10.296Z,14.50
2018-09-11T04:35:04.774Z,14.40
2018-09-11T04:39:59.573Z,14.40
2018-09-11T04:44:54.087Z,14.40
2018-09-11T04:49:48.580Z,14.40
2018-09-11T04:54:43.344Z,14.30
2018-09-11T04:59:37.824Z,14.30
2018-09-11T05:04:32.386Z,14.30
2018-09-11T05:09:26.903Z,14.30
2018-09-11T05:14:21.608Z,14.40
2018-09-11T05:19:16.581Z,14.50
2018-09-11T05:24:11.333Z,14.60
2018-09-11T05:29:05.868Z,14.70
2018-09-11T05:34:00.431Z,14.80
2018-09-11T05:38:55.000Z,14.90
2018-09-11T05:43:51.751Z,15.10
2018-09-11T05:48:49.011Z,15.30
2018-09-11T05:53:44.512Z,15.60
2018-09-11T05:58:39.151Z,15.80
2018-09-11T06:03:33.683Z,16.00
2018-09-11T06:08:28.718Z,16.20
2018-09-11T06:13:23.440Z,16.40
2018-09-11T06:18:17.902Z,16.60
2018-09-11T06:23:12.404Z,16.90
2018-09-11T06:28:07.210Z,17.50
2018-09-11T06:33:02.444Z,18.50
2018-09-11T06:37:57.111Z,20.20
2018-09-11T06:42:52.058Z,21.90
2018-09-11T06:47:46.635Z,23.30
2018-09-11T06:52:41.212Z,24.20
2018-09-11T06:57:35.726Z,27.10
2018-09-11T07:02:31.795Z,30.60
2018-09-11T07:07:26.914Z,32.30
2018-09-11T07:12:21.730Z,33.70
2018-09-11T07:17:16.522Z,35.20
2018-09-11T07:22:11.811Z,37.00
2018-09-11T07:27:06.632Z,38.90
2018-09-11T07:32:01.647Z,38.70
2018-09-11T07:36:56.622Z,37.60
2018-09-11T07:41:51.404Z,38.50
2018-09-11T07:46:47.372Z,40.40
2018-09-11T07:51:42.741Z,41.40
2018-09-11T07:56:37.856Z,42.00
2018-09-11T08:01:32.838Z,39.40
2018-09-11T08:06:27.651Z,39.40
2018-09-11T08:11:22.711Z,41.40
2018-09-11T08:16:17.510Z,43.70
2018-09-11T08:21:12.430Z,45.30
2018-09-11T08:26:07.838Z,46.90
2018-09-11T08:31:03.002Z,47.80
2018-09-11T08:35:57.791Z,49.10
2018-09-11T08:40:52.684Z,50.30
2018-09-11T08:45:48.085Z,51.50
2018-09-11T08:50:42.893Z,51.90
2018-09-11T08:55:37.934Z,52.00
2018-09-11T09:00:33.018Z,52.20
2018-09-11T09:05:28.289Z,51.80
2018-09-11T09:10:23.131Z,50.80
2018-09-11T09:15:17.888Z,51.60
2018-09-11T09:20:12.772Z,52.20
2018-09-11T09:25:07.638Z,52.00
2018-09-11T09:30:02.834Z,53.00
2018-09-11T09:34:57.557Z,53.10
2018-09-11T09:39:52.335Z,51.70
2018-09-11T09:44:47.134Z,49.80
2018-09-11T09:49:42.358Z,48.30
2018-09-11T09:54:37.151Z,43.20
2018-09-11T09:59:32.126Z,38.20
2018-09-11T10:04:26.866Z,34.60
2018-09-11T10:09:21.650Z,32.40
2018-09-11T10:14:16.392Z,30.70
2018-09-11T10:19:11.321Z,29.40
2018-09-11T10:24:06.622Z,28.60
2018-09-11T10:29:01.426Z,28.10
2018-09-11T10:33:56.406Z,27.80
2018-09-11T10:38:51.676Z,27.30
2018-09-11T10:43:46.460Z,26.80
2018-09-11T10:48:41.386Z,26.50
2018-09-11T10:53:36.394Z,26.20
2018-09-11T10:58:30.940Z,26.10
2018-09-11T11:03:25.458Z,26.10
2018-09-11T11:08:19.926Z,26.00
2018-09-11T11:13:14.484Z,25.90
2018-09-11T11:18:09.249Z,25.90
2018-09-11T11:23:03.852Z,26.00
2018-09-11T11:27:58.377Z,26.00
2018-09-11T11:32:53.067Z,25.90
2018-09-11T11:37:47.814Z,26.00
2018-09-11T11:42:42.334Z,26.00
2018-09-11T11:47:37.207Z,26.00
2018-09-11T11:52:31.936Z,26.00
2018-09-11T11:57:26.542Z,26.00
2018-09-11T12:02:21.118Z,26.20
2018-09-11T12:07:15.673Z,26.20
2018-09-11T12:12:10.192Z,26.30
2018-09-11T12:17:05.097Z,26.40
2018-09-11T12:22:00.025Z,26.50
2018-09-11T12:26:54.995Z,26.60
2018-09-11T12:31:49.736Z,26.70
2018-09-11T12:36:44.885Z,26.70
2018-09-11T12:41:39.630Z,26.70
2018-09-11T12:46:34.639Z,26.70
2018-09-11T12:51:29.539Z,26.70
2018-09-11T12:56:24.572Z,26.80
2018-09-11T13:01:19.417Z,26.90
2018-09-11T13:06:14.204Z,27.10
2018-09-11T13:11:09.304Z,27.10
2018-09-11T13:16:04.138Z,27.20
2018-09-11T13:20:59.092Z,27.20
2018-09-11T13:25:53.852Z,27.20
2018-09-11T13:30:48.654Z,27.30
2018-09-11T13:35:43.412Z,27.30
2018-09-11T13:40:38.267Z,27.20
2018-09-11T13:45:33.047Z,27.20
2018-09-11T13:50:27.833Z,27.30
2018-09-11T13:55:22.849Z,27.40
2018-09-11T14:00:17.686Z,27.50
2018-09-11T14:05:12.651Z,27.50
2018-09-11T14:10:07.455Z,27.60
2018-09-11T14:15:02.858Z,27.50
2018-09-11T14:19:57.871Z,27.60
2018-09-11T14:24:53.038Z,27.60
2018-09-11T14:29:47.856Z,27.70
2018-09-11T14:34:42.657Z,27.70
2018-09-11T14:39:37.582Z,27.60
2018-09-11T14:44:32.331Z,27.60
2018-09-11T14:49:27.271Z,27.60
2018-09-11T14:54:22.047Z,27.60
2018-09-11T14:59:16.843Z,27.60
2018-09-11T15:04:12.039Z,27.50
2018-09-11T15:09:10.041Z,27.50
2018-09-11T15:14:05.006Z,27.50
2018-09-11T15:19:00.013Z,27.50
2018-09-11T15:23:55.040Z,27.50
2018-09-11T15:28:50.294Z,27.40
2018-09-11T15:33:45.030Z,27.40
2018-09-11T15:38:40.224Z,27.30
2018-09-11T15:43:35.117Z,27.20
2018-09-11T15:48:29.901Z,27.10
2018-09-11T15:53:24.400Z,26.90
2018-09-11T15:58:19.146Z,26.80
2018-09-11T16:03:13.893Z,26.70
2018-09-11T16:08:08.657Z,26.70
2018-09-11T16:13:03.433Z,26.60
2018-09-11T16:17:57.982Z,26.50
2018-09-11T16:22:52.519Z,26.50
2018-09-11T16:27:47.092Z,26.40
2018-09-11T16:32:41.782Z,26.40
2018-09-11T16:37:36.280Z,26.20
2018-09-11T16:42:30.764Z,26.20
2018-09-11T16:47:25.662Z,26.00
2018-09-11T16:52:20.255Z,26.00
2018-09-11T16:57:14.798Z,25.90
2018-09-11T17:02:09.505Z,25.80
2018-09-11T17:07:04.131Z,25.60
2018-09-11T17:11:58.705Z,25.50
2018-09-11T17:16:53.558Z,25.30
2018-09-11T17:21:48.203Z,25.20
2018-09-11T17:26:42.727Z,25.00
2018-09-11T17:31:37.520Z,24.90
2018-09-11T17:36:32.136Z,24.70
2018-09-11T17:41:26.846Z,24.50
2018-09-11T17:46:21.392Z,24.40
2018-09-11T17:51:16.089Z,24.20
2018-09-11T17:56:10.634Z,24.00
2018-09-11T18:01:05.143Z,23.80
2018-09-11T18:05:59.933Z,23.60
2018-09-11T18:10:54.725Z,23.50
2018-09-11T18:15:49.577Z,23.40
2018-09-11T18:20:44.066Z,23.20
2018-09-11T18:25:38.875Z,23.10
2018-09-11T18:30:33.707Z,23.00
2018-09-11T18:35:28.222Z,22.90
2018-09-11T18:40:22.853Z,22.90
2018-09-11T18:45:17.527Z,22.90
2018-09-11T18:50:12.155Z,22.80
2018-09-11T18:55:07.179Z,22.60
2018-09-11T19:00:02.019Z,22.50
2018-09-11T19:04:56.608Z,22.40
2018-09-11T19:09:51.430Z,22.20
2018-09-11T19:14:46.880Z,22.00
2018-09-11T19:19:41.391Z,21.90
2018-09-11T19:24:36.026Z,21.70
2018-09-11T19:29:31.140Z,21.60
2018-09-11T19:34:25.708Z,21.50
2018-09-11T19:39:20.275Z,21.30
2018-09-11T19:44:15.044Z,21.30
2018-09-11T19:49:10.217Z,21.20
2018-09-11T19:54:05.027Z,21.10
2018-09-11T19:59:00.120Z,21.00
2018-09-11T20:03:54.870Z,20.90
2018-09-11T20:08:49.492Z,20.90
2018-09-11T20:13:44.324Z,20.90
2018-09-11T20:18:39.454Z,20.80
2018-09-11T20:23:36.359Z,20.80
2018-09-11T20:28:31.692Z,20.70
2018-09-11T20:33:27.002Z,20.60
2018-09-11T20:38:21.798Z,20.50
2018-09-11T20:43:16.501Z,20.40
2018-09-11T20:48:11.144Z,20.20
2018-09-11T20:53:05.697Z,20.10
2018-09-11T20:58:00.356Z,20.00
2018-09-11T21:02:55.899Z,19.90
2018-09-11T21:07:52.329Z,19.80
2018-09-11T21:12:47.130Z,19.70
2018-09-11T21:17:41.594Z,19.60
2018-09-11T21:22:36.087Z,19.50
2018-09-11T21:27:31.101Z,19.40
2018-09-11T21:32:26.912Z,19.30
2018-09-11T21:37:22.000Z,19.30
2018-09-11T21:42:18.480Z,19.30
2018-09-11T21:47:14.436Z,19.30
2018-09-11T21:52:09.016Z,19.40
2018-09-11T21:57:03.701Z,19.40
2018-09-11T22:02:01.459Z,19.30
2018-09-11T22:06:56.288Z,19.30
2018-09-11T22:11:51.052Z,19.20
2018-09-11T22:16:46.223Z,19.20
2018-09-11T22:21:41.007Z,19.20
2018-09-11T22:26:35.917Z,19.10
2018-09-11T22:31:31.116Z,19.10
2018-09-11T22:36:26.504Z,19.00
2018-09-11T22:41:21.182Z,19.00
2018-09-11T22:46:16.525Z,18.80
2018-09-11T22:51:11.132Z,18.80
2018-09-11T22:56:05.640Z,18.60
2018-09-11T23:01:00.241Z,18.60
2018-09-11T23:05:55.046Z,18.50
2018-09-11T23:10:49.853Z,18.40
2018-09-11T23:15:44.501Z,18.30
2018-09-11T23:20:39.083Z,18.30
2018-09-11T23:25:33.640Z,18.30
2018-09-11T23:30:28.169Z,18.20
2018-09-11T23:35:23.479Z,18.20
2018-09-11T23:40:18.157Z,18.20
2018-09-11T23:45:12.655Z,18.20
2018-09-11T23:50:08.371Z,18.20
2018-09-11T23:55:02.836Z,18.20
2018-09-11T23:59:57.403Z,18.20
